Time;durP1;ratioP1;P1;durP2;ratioP2;P2;SDS_P1;SDS_P2;PMS_P1;PMS_P2;Temp;Humidity;BMP_temperature;BMP_pressure;BME280_temperature;BME280_humidity;BME280_pressure;Samples;Min_cycle;Max_cycle;Signal;HPM_P1;HPM_P2
2022/04/24 00:00:46;;;;;;;4.70;2.90;;;12.70;99.90;;;;;;5034451;28;20711;-46
2022/04/24 00:03:11;;;;;;;6.93;3.00;;;12.70;99.90;;;;;;5032627;28;20551;-43
2022/04/24 00:05:37;;;;;;;4.57;2.80;;;12.70;99.90;;;;;;5034169;28;20177;-45
2022/04/24 00:08:03;;;;;;;5.00;3.03;;;12.60;99.90;;;;;;5034038;28;20693;-45
2022/04/24 00:10:29;;;;;;;4.13;2.60;;;12.60;99.90;;;;;;5032821;28;20184;-45
2022/04/24 00:12:54;;;;;;;6.23;2.60;;;12.60;99.90;;;;;;5034289;28;20255;-45
2022/04/24 00:15:20;;;;;;;3.73;3.10;;;12.50;99.90;;;;;;5034200;28;20188;-45
2022/04/24 00:17:45;;;;;;;6.17;3.23;;;12.50;99.90;;;;;;5033882;28;20279;-45
2022/04/24 00:20:11;;;;;;;4.43;3.30;;;12.40;99.90;;;;;;5033816;28;20204;-47
2022/04/24 00:22:37;;;;;;;5.50;2.53;;;12.40;99.90;;;;;;5034145;28;20180;-44
2022/04/24 00:25:03;;;;;;;5.77;2.60;;;12.40;99.90;;;;;;5033827;28;20181;-46
2022/04/24 00:27:29;;;;;;;3.77;2.67;;;12.40;99.90;;;;;;5032374;28;20204;-46
2022/04/24 00:29:55;;;;;;;9.00;3.00;;;12.30;99.90;;;;;;5033715;28;20181;-45
2022/04/24 00:32:20;;;;;;;8.33;3.03;;;12.30;99.90;;;;;;5032451;28;20189;-45
2022/04/24 00:34:46;;;;;;;19.37;3.23;;;12.20;99.90;;;;;;5033665;28;20189;-44
2022/04/24 00:37:12;;;;;;;4.80;2.90;;;12.20;99.90;;;;;;5033713;28;20643;-45
2022/04/24 00:39:37;;;;;;;3.17;2.57;;;12.20;99.90;;;;;;5033496;28;20225;-45
2022/04/24 00:42:03;;;;;;;5.10;3.03;;;12.10;99.90;;;;;;5032289;28;20539;-45
2022/04/24 00:44:32;;;;;;;4.33;3.20;;;12.10;99.90;;;;;;5033453;28;20210;-47
2022/04/24 00:47:04;;;;;;;9.03;2.97;;;12.10;99.90;;;;;;5015827;28;20208;-45
2022/04/24 00:49:30;;;;;;;5.73;3.13;;;12.10;99.90;;;;;;5033483;28;20185;-45
2022/04/24 00:51:57;;;;;;;5.37;2.90;;;12.10;99.90;;;;;;5033690;28;20326;-44
2022/04/24 00:54:23;;;;;;;4.30;2.87;;;12.10;99.90;;;;;;5032115;28;20192;-45
2022/04/24 00:56:49;;;;;;;6.77;3.10;;;12.10;99.90;;;;;;5032540;28;20644;-46
2022/04/24 00:59:15;;;;;;;3.00;2.70;;;12.00;99.90;;;;;;5033590;28;20246;-45
2022/04/24 01:01:42;;;;;;;7.53;3.30;;;12.00;99.90;;;;;;5032004;28;20194;-45
2022/04/24 01:04:10;;;;;;;6.40;3.10;;;12.00;99.90;;;;;;5032022;28;20209;-45
2022/04/24 01:06:42;;;;;;;7.93;3.23;;;11.90;99.90;;;;;;5033276;28;20696;-45
2022/04/24 01:09:19;;;;;;;4.27;3.30;;;11.90;99.90;;;;;;5032053;28;20234;-46
2022/04/24 01:11:50;;;;;;;6.97;2.80;;;11.90;99.90;;;;;;5031988;28;20188;-46
2022/04/24 01:14:16;;;;;;;3.53;3.17;;;11.90;99.90;;;;;;5031950;28;20180;-44
2022/04/24 01:16:43;;;;;;;4.17;3.10;;;11.90;99.90;;;;;;5034393;28;20204;-46
2022/04/24 01:19:09;;;;;;;5.23;2.87;;;11.80;99.90;;;;;;5037273;28;20198;-46
2022/04/24 01:21:36;;;;;;;3.67;2.73;;;11.80;99.90;;;;;;5037640;28;20671;-44
2022/04/24 01:24:05;;;;;;;8.80;3.10;;;11.80;99.90;;;;;;5037190;28;20211;-45
2022/04/24 01:26:31;;;;;;;5.70;3.03;;;11.70;99.90;;;;;;5037050;28;20204;-45
2022/04/24 01:28:57;;;;;;;4.77;2.60;;;11.70;99.90;;;;;;5035850;28;20186;-44
2022/04/24 01:31:22;;;;;;;3.90;2.63;;;11.70;99.90;;;;;;5036988;28;20221;-44
2022/04/24 01:33:48;;;;;;;4.83;3.17;;;11.60;99.90;;;;;;5035781;28;20191;-45
2022/04/24 01:36:14;;;;;;;3.63;2.80;;;11.60;99.90;;;;;;5037375;28;20205;-44
2022/04/24 01:38:41;;;;;;;4.70;2.80;;;11.60;99.90;;;;;;5035655;28;20188;-45
2022/04/24 01:41:07;;;;;;;5.67;3.00;;;11.60;99.90;;;;;;5035449;28;20220;-46
2022/04/24 01:43:33;;;;;;;2.90;2.60;;;11.60;99.90;;;;;;5037128;28;20186;-46
2022/04/24 01:45:59;;;;;;;4.87;3.10;;;11.60;99.90;;;;;;5035513;28;20180;-46
2022/04/24 01:48:24;;;;;;;4.80;2.70;;;11.60;99.90;;;;;;5035914;28;20266;-46
2022/04/24 01:50:54;;;;;;;3.87;3.10;;;11.50;99.90;;;;;;5036952;28;20183;-40
2022/04/24 01:53:19;;;;;;;3.13;2.83;;;11.40;99.90;;;;;;5036667;28;20180;-40
2022/04/24 01:55:46;;;;;;;5.13;3.07;;;11.30;99.90;;;;;;5037078;28;20234;-39
2022/04/24 01:58:11;;;;;;;4.30;3.17;;;11.20;99.90;;;;;;5037062;28;20599;-40
2022/04/24 02:00:37;;;;;;;4.93;3.07;;;11.20;99.90;;;;;;5036437;28;20258;-41
2022/04/24 02:03:02;;;;;;;7.50;3.27;;;11.20;99.90;;;;;;5037126;28;20589;-40
2022/04/24 02:05:28;;;;;;;5.37;3.30;;;11.10;99.90;;;;;;5036354;28;20274;-43
2022/04/24 02:07:53;;;;;;;4.57;3.33;;;11.10;99.90;;;;;;5036341;28;20558;-40
2022/04/24 02:10:19;;;;;;;3.97;3.17;;;11.00;99.90;;;;;;5036252;28;20262;-40
2022/04/24 02:12:46;;;;;;;3.87;3.23;;;10.90;99.90;;;;;;5036299;28;20645;-40
2022/04/24 02:15:12;;;;;;;4.30;3.10;;;10.90;99.90;;;;;;5036346;28;20182;-40
2022/04/24 02:17:38;;;;;;;4.40;3.40;;;10.80;99.90;;;;;;5034975;28;20224;-42
2022/04/24 02:20:04;;;;;;;4.37;3.70;;;10.70;99.90;;;;;;5034926;28;20214;-43
2022/04/24 02:22:33;;;;;;;4.50;3.40;;;10.70;99.90;;;;;;5056297;28;20186;-40
2022/04/24 02:24:59;;;;;;;3.87;3.47;;;10.70;99.90;;;;;;5058928;28;20184;-42
2022/04/24 02:27:25;;;;;;;4.13;3.57;;;10.70;99.90;;;;;;5036570;28;20205;-43
2022/04/24 02:29:51;;;;;;;4.90;3.57;;;10.70;99.90;;;;;;5036397;28;20269;-40
2022/04/24 02:32:16;;;;;;;5.23;4.10;;;10.60;99.90;;;;;;5036286;28;20183;-40
2022/04/24 02:34:42;;;;;;;4.33;3.83;;;10.50;99.90;;;;;;5035977;28;20181;-41
2022/04/24 02:37:08;;;;;;;5.37;3.50;;;10.50;99.90;;;;;;5035715;28;20213;-41
2022/04/24 02:39:33;;;;;;;4.53;4.07;;;10.40;99.90;;;;;;5038671;28;20206;-41
2022/04/24 02:41:59;;;;;;;4.23;3.70;;;10.40;99.90;;;;;;5036352;28;20183;-41
2022/04/24 02:44:24;;;;;;;3.90;3.40;;;10.30;99.90;;;;;;5036023;28;20163;-42
2022/04/24 02:46:50;;;;;;;5.10;3.83;;;10.30;99.90;;;;;;5035783;28;20194;-40
2022/04/24 02:49:15;;;;;;;4.83;4.27;;;10.20;99.90;;;;;;5036280;28;20532;-43
2022/04/24 02:51:41;;;;;;;4.40;4.00;;;10.20;99.90;;;;;;5036212;28;20181;-43
2022/04/24 02:54:06;;;;;;;4.43;3.90;;;10.20;99.90;;;;;;5035621;28;20261;-40
2022/04/24 02:56:32;;;;;;;7.50;4.37;;;10.10;99.90;;;;;;5035666;28;20202;-39
2022/04/24 02:58:58;;;;;;;5.33;4.80;;;10.10;99.90;;;;;;5035492;28;20197;-41
2022/04/24 03:01:23;;;;;;;4.50;4.10;;;10.10;99.90;;;;;;5035291;28;20255;-42
2022/04/24 03:03:52;;;;;;;4.80;4.20;;;10.10;99.90;;;;;;5035292;28;20627;-40
2022/04/24 03:06:18;;;;;;;6.60;4.70;;;10.10;99.90;;;;;;5035926;28;20273;-40
2022/04/24 03:08:46;;;;;;;6.07;4.83;;;10.10;99.90;;;;;;5035899;28;20170;-39
2022/04/24 03:11:12;;;;;;;4.70;4.20;;;10.10;99.90;;;;;;5033930;28;20264;-41
2022/04/24 03:13:38;;;;;;;6.53;4.37;;;10.00;99.90;;;;;;5035363;28;20216;-41
2022/04/24 03:16:03;;;;;;;5.93;4.00;;;10.10;99.90;;;;;;5035574;28;20173;-41
2022/04/24 03:18:29;;;;;;;10.10;4.13;;;10.10;99.90;;;;;;5035281;28;20711;-40
2022/04/24 03:20:54;;;;;;;5.43;4.93;;;10.00;99.90;;;;;;5035000;28;20201;-39
2022/04/24 03:23:20;;;;;;;5.27;3.77;;;10.00;99.90;;;;;;5035221;28;20169;-41
2022/04/24 03:25:46;;;;;;;7.83;4.40;;;9.90;99.90;;;;;;5035208;28;20185;-39
2022/04/24 03:28:11;;;;;;;4.87;4.37;;;9.90;99.90;;;;;;5035106;28;20201;-41
2022/04/24 03:30:37;;;;;;;5.07;4.57;;;9.90;99.90;;;;;;5035127;28;20249;-41
2022/04/24 03:33:02;;;;;;;4.63;4.20;;;9.80;99.90;;;;;;5034822;28;20180;-42
2022/04/24 03:35:28;;;;;;;5.83;4.57;;;9.80;99.90;;;;;;5034871;28;20181;-40
2022/04/24 03:37:54;;;;;;;5.37;4.60;;;9.70;99.90;;;;;;5034309;28;20205;-42
2022/04/24 03:40:20;;;;;;;5.40;4.50;;;9.70;99.90;;;;;;5034273;28;20220;-42
2022/04/24 03:42:46;;;;;;;5.73;4.70;;;9.70;99.90;;;;;;5035490;28;20213;-40
2022/04/24 03:45:12;;;;;;;6.17;5.00;;;9.70;99.90;;;;;;5034681;28;20590;-40
2022/04/24 03:47:39;;;;;;;5.17;4.67;;;9.60;99.90;;;;;;5034406;28;20243;-40
2022/04/24 03:50:05;;;;;;;9.87;4.60;;;9.60;99.90;;;;;;5034679;28;20182;-42
2022/04/24 03:52:31;;;;;;;5.00;4.50;;;9.60;99.90;;;;;;5034747;28;20177;-43
2022/04/24 03:54:57;;;;;;;6.83;5.20;;;9.50;99.90;;;;;;5034766;28;20642;-41
2022/04/24 03:57:23;;;;;;;5.27;4.77;;;9.50;99.90;;;;;;5034458;28;20549;-41
2022/04/24 03:59:48;;;;;;;5.73;4.53;;;9.40;99.90;;;;;;5034378;28;20197;-43
2022/04/24 04:02:14;;;;;;;5.73;5.13;;;9.40;99.90;;;;;;5035010;28;20179;-43
2022/04/24 04:04:40;;;;;;;6.10;4.67;;;9.40;99.90;;;;;;5034803;28;20581;-41
2022/04/24 04:07:08;;;;;;;5.50;4.83;;;9.40;99.90;;;;;;5035211;28;20291;-38
2022/04/24 04:09:34;;;;;;;5.53;4.63;;;9.40;99.90;;;;;;5034506;28;20252;-43
2022/04/24 04:12:00;;;;;;;5.40;4.63;;;9.40;99.90;;;;;;5034157;28;20204;-42
2022/04/24 04:14:25;;;;;;;5.90;5.30;;;9.30;99.90;;;;;;5034085;28;20231;-41
2022/04/24 04:16:51;;;;;;;5.50;4.83;;;9.20;99.90;;;;;;5034135;28;20197;-40
2022/04/24 04:19:17;;;;;;;5.77;5.17;;;9.20;99.90;;;;;;5033913;28;20243;-40
2022/04/24 04:21:43;;;;;;;5.70;4.90;;;9.20;99.90;;;;;;5033787;28;20235;-40
2022/04/24 04:24:09;;;;;;;6.40;5.43;;;9.20;99.90;;;;;;5033195;28;20169;-40
2022/04/24 04:26:35;;;;;;;7.80;6.03;;;9.20;99.90;;;;;;5033772;28;20250;-40
2022/04/24 04:29:01;;;;;;;6.03;5.20;;;9.20;99.90;;;;;;5033708;28;20204;-41
2022/04/24 04:31:26;;;;;;;5.53;5.03;;;9.20;99.90;;;;;;5033716;28;20235;-40
2022/04/24 04:33:52;;;;;;;6.20;5.07;;;9.20;99.90;;;;;;5033899;28;20177;-41
2022/04/24 04:36:18;;;;;;;5.73;5.23;;;9.10;99.90;;;;;;5033925;28;20202;-41
2022/04/24 04:38:43;;;;;;;7.17;5.40;;;9.10;99.90;;;;;;5033766;28;20184;-41
2022/04/24 04:41:09;;;;;;;9.70;4.57;;;9.10;99.90;;;;;;5033391;28;20236;-42
2022/04/24 04:43:34;;;;;;;7.07;5.27;;;9.10;99.90;;;;;;5033821;28;20243;-39
2022/04/24 04:46:00;;;;;;;6.57;5.50;;;9.10;99.90;;;;;;5033401;28;20235;-40
2022/04/24 04:48:26;;;;;;;6.20;4.83;;;9.10;99.90;;;;;;5033602;28;20161;-40
2022/04/24 04:50:52;;;;;;;6.53;5.47;;;9.10;99.90;;;;;;5032457;28;20173;-40
2022/04/24 04:53:18;;;;;;;5.93;5.20;;;9.10;99.90;;;;;;5033725;28;20185;-42
2022/04/24 04:55:44;;;;;;;7.40;5.27;;;9.10;99.90;;;;;;5033593;28;20180;-42
2022/04/24 04:58:09;;;;;;;5.57;4.90;;;9.10;99.90;;;;;;5033258;28;20205;-40
2022/04/24 05:00:35;;;;;;;5.93;5.33;;;9.00;99.90;;;;;;5033501;28;20208;-42
2022/04/24 05:03:01;;;;;;;5.90;4.77;;;9.10;99.90;;;;;;5033394;28;20173;-41
2022/04/24 05:05:26;;;;;;;7.00;5.77;;;9.10;99.90;;;;;;5033320;28;20177;-41
2022/04/24 05:07:52;;;;;;;6.13;5.30;;;9.10;99.90;;;;;;5033109;28;20203;-41
2022/04/24 05:10:18;;;;;;;7.87;6.10;;;9.10;99.90;;;;;;5033297;28;20184;-41
2022/04/24 05:12:44;;;;;;;7.03;5.57;;;9.10;99.90;;;;;;5033505;28;20188;-39
2022/04/24 05:15:14;;;;;;;6.60;5.90;;;9.20;99.90;;;;;;5033231;28;20203;-41
2022/04/24 05:17:41;;;;;;;7.07;6.03;;;9.20;99.90;;;;;;5033395;28;20201;-40
2022/04/24 05:20:13;;;;;;;7.53;6.10;;;9.30;99.90;;;;;;5033110;28;20210;-40
2022/04/24 05:22:40;;;;;;;7.13;5.80;;;9.40;99.90;;;;;;5033486;28;20513;-42
2022/04/24 05:25:07;;;;;;;5.83;5.20;;;9.40;99.90;;;;;;5033100;28;20169;-43
2022/04/24 05:27:32;;;;;;;8.23;5.83;;;9.40;99.90;;;;;;5032974;28;20233;-41
2022/04/24 05:29:58;;;;;;;8.50;5.73;;;9.40;99.90;;;;;;5033110;28;20185;-40
2022/04/24 05:32:24;;;;;;;8.87;6.13;;;9.40;99.90;;;;;;5033092;28;20239;-43
2022/04/24 05:34:49;;;;;;;7.27;6.57;;;9.40;99.90;;;;;;5052639;28;20197;-41
2022/04/24 05:37:15;;;;;;;7.23;6.40;;;9.40;99.90;;;;;;5052197;28;20201;-39
2022/04/24 05:39:40;;;;;;;6.93;6.23;;;9.40;99.90;;;;;;5033013;28;20565;-40
2022/04/24 05:42:06;;;;;;;9.10;6.30;;;9.50;99.90;;;;;;5033269;28;20193;-39
2022/04/24 05:44:32;;;;;;;8.40;6.10;;;9.50;99.90;;;;;;5034116;28;20185;-41
2022/04/24 05:46:57;;;;;;;9.03;6.30;;;9.60;99.90;;;;;;5033288;28;20678;-43
2022/04/24 05:49:23;;;;;;;8.50;6.50;;;9.60;99.90;;;;;;5032904;28;20192;-40
2022/04/24 05:51:48;;;;;;;7.70;6.87;;;9.60;99.90;;;;;;5032875;28;20183;-41
2022/04/24 05:54:15;;;;;;;12.47;6.80;;;9.60;99.90;;;;;;5033182;28;20268;-40
2022/04/24 05:56:44;;;;;;;7.80;6.93;;;9.70;99.90;;;;;;5033087;28;20631;-39
2022/04/24 05:59:10;;;;;;;7.70;6.90;;;9.70;99.90;;;;;;5033455;28;20243;-42
2022/04/24 06:01:36;;;;;;;9.23;7.00;;;9.80;99.90;;;;;;5033839;28;20558;-41
2022/04/24 06:04:02;;;;;;;11.67;7.03;;;9.80;99.90;;;;;;5036525;28;20590;-42
2022/04/24 06:06:30;;;;;;;8.53;6.83;;;9.80;99.90;;;;;;5036302;28;20703;-41
2022/04/24 06:08:56;;;;;;;7.97;6.90;;;9.90;99.90;;;;;;5036627;28;20194;-41
2022/04/24 06:11:22;;;;;;;13.27;7.23;;;9.90;99.90;;;;;;5036293;28;20185;-43
2022/04/24 06:13:48;;;;;;;8.50;6.57;;;9.90;99.90;;;;;;5036324;28;20633;-43
2022/04/24 06:16:13;;;;;;;7.43;6.73;;;9.90;99.90;;;;;;5036701;28;20275;-43
2022/04/24 06:18:39;;;;;;;7.90;6.90;;;9.90;99.90;;;;;;5036155;28;20710;-40
2022/04/24 06:21:04;;;;;;;7.83;6.87;;;10.00;99.90;;;;;;5036328;28;20201;-40
2022/04/24 06:23:31;;;;;;;7.23;6.23;;;10.10;99.90;;;;;;5035982;28;20185;-42
2022/04/24 06:25:58;;;;;;;9.37;6.90;;;10.10;99.90;;;;;;5035930;28;20173;-41
2022/04/24 06:28:24;;;;;;;8.03;5.90;;;10.10;99.90;;;;;;5036298;28;20191;-42
2022/04/24 06:30:50;;;;;;;7.70;6.73;;;10.10;99.90;;;;;;5035916;28;20272;-41
2022/04/24 06:33:15;;;;;;;7.87;6.87;;;10.20;99.90;;;;;;5036085;28;20263;-41
2022/04/24 06:35:41;;;;;;;8.97;7.03;;;10.30;99.90;;;;;;5035837;28;20659;-39
2022/04/24 06:38:07;;;;;;;9.83;6.93;;;10.30;99.90;;;;;;5035700;28;20200;-40
2022/04/24 06:40:34;;;;;;;8.73;6.93;;;10.30;99.90;;;;;;5035717;28;20307;-40
2022/04/24 06:43:02;;;;;;;8.60;7.60;;;10.40;99.90;;;;;;5035731;28;20185;-39
2022/04/24 06:45:41;;;;;;;8.00;7.10;;;10.40;99.90;;;;;;5035928;28;20707;-40
2022/04/24 06:48:09;;;;;;;7.83;6.57;;;10.40;99.90;;;;;;5035661;28;20200;-44
2022/04/24 06:50:37;;;;;;;8.10;7.10;;;10.40;99.90;;;;;;5035781;28;20220;-40
2022/04/24 06:53:11;;;;;;;7.37;6.57;;;10.50;99.90;;;;;;5035552;28;20178;-42
2022/04/24 06:55:39;;;;;;;7.83;7.03;;;10.60;99.90;;;;;;5035504;28;20168;-39
2022/04/24 06:58:06;;;;;;;9.00;7.03;;;10.80;99.90;;;;;;5035349;28;20207;-43
2022/04/24 07:00:34;;;;;;;13.17;7.30;;;11.00;99.90;;;;;;5035703;28;20292;-43
2022/04/24 07:03:00;;;;;;;7.87;6.63;;;11.10;99.90;;;;;;5034359;28;20277;-41
2022/04/24 07:05:27;;;;;;;11.77;7.10;;;11.10;99.90;;;;;;5035665;28;20722;-39
2022/04/24 07:07:53;;;;;;;8.57;7.17;;;11.20;99.90;;;;;;5035525;28;20281;-41
2022/04/24 07:10:19;;;;;;;7.03;6.33;;;11.30;99.90;;;;;;5035253;28;20294;-38
2022/04/24 07:12:53;;;;;;;10.40;7.23;;;11.40;99.90;;;;;;5034823;28;20188;-43
2022/04/24 07:15:21;;;;;;;9.27;6.70;;;11.40;99.90;;;;;;5035077;28;20622;-43
2022/04/24 07:17:49;;;;;;;8.60;7.13;;;11.40;99.90;;;;;;5035122;28;20205;-40
2022/04/24 07:20:17;;;;;;;7.13;6.43;;;11.50;99.90;;;;;;5034984;28;20701;-42
2022/04/24 07:22:48;;;;;;;10.03;6.60;;;11.50;99.90;;;;;;5035052;28;20243;-40
2022/04/24 07:25:15;;;;;;;11.60;7.53;;;11.70;99.90;;;;;;5034951;28;20184;-41
2022/04/24 07:27:41;;;;;;;7.87;6.73;;;11.80;99.90;;;;;;5035664;28;20204;-40
2022/04/24 07:30:13;;;;;;;8.73;6.60;;;11.80;99.90;;;;;;5034872;28;20187;-43
2022/04/24 07:32:48;;;;;;;8.80;6.73;;;11.90;99.90;;;;;;5035090;28;20263;-40
2022/04/24 07:35:16;;;;;;;8.37;7.43;;;11.90;99.90;;;;;;5034808;28;20195;-39
2022/04/24 07:37:42;;;;;;;7.37;6.57;;;11.90;99.90;;;;;;5035008;28;20212;-40
2022/04/24 07:40:09;;;;;;;7.87;6.80;;;11.90;99.90;;;;;;5034510;28;20676;-42
2022/04/24 07:42:51;;;;;;;7.33;6.60;;;11.90;99.90;;;;;;5035091;28;20187;-40
2022/04/24 07:45:24;;;;;;;11.33;7.03;;;11.80;99.90;;;;;;5034864;28;20168;-39
2022/04/24 07:47:52;;;;;;;7.33;6.63;;;11.90;99.90;;;;;;5034690;28;20214;-44
2022/04/24 07:50:20;;;;;;;13.33;7.40;;;11.90;99.90;;;;;;5034393;28;20227;-42
2022/04/24 07:52:47;;;;;;;10.20;6.70;;;11.90;99.90;;;;;;5034381;28;20181;-40
2022/04/24 07:55:17;;;;;;;7.67;6.67;;;11.90;99.90;;;;;;5033148;28;20184;-40
2022/04/24 07:57:42;;;;;;;9.60;7.00;;;11.90;99.90;;;;;;5034470;28;20212;-40
2022/04/24 08:00:11;;;;;;;6.77;6.07;;;12.00;99.90;;;;;;5034214;28;20680;-40
2022/04/24 08:02:56;;;;;;;9.40;6.70;;;12.20;99.90;;;;;;5034308;28;20173;-41
2022/04/24 08:05:28;;;;;;;7.63;6.43;;;12.40;99.90;;;;;;5034273;28;20176;-42
2022/04/24 08:07:56;;;;;;;13.53;6.77;;;12.60;99.90;;;;;;5034454;28;20568;-40
2022/04/24 08:10:23;;;;;;;10.50;6.00;;;12.70;99.90;;;;;;5034123;28;20203;-41
2022/04/24 08:12:49;;;;;;;9.30;7.03;;;12.80;99.90;;;;;;5034105;28;20181;-43
2022/04/24 08:15:16;;;;;;;8.43;6.57;;;12.90;99.90;;;;;;5033916;28;20198;-43
2022/04/24 08:17:41;;;;;;;8.73;6.80;;;13.00;99.90;;;;;;5033828;28;20209;-43
2022/04/24 08:20:08;;;;;;;9.33;6.80;;;13.00;99.90;;;;;;5033835;28;20215;-42
2022/04/24 08:22:44;;;;;;;7.27;6.57;;;13.20;99.90;;;;;;5033947;28;20184;-41
2022/04/24 08:25:12;;;;;;;7.03;6.33;;;13.30;99.90;;;;;;5033866;28;20165;-40
2022/04/24 08:27:38;;;;;;;7.70;6.50;;;13.40;99.90;;;;;;5033746;28;20197;-42
2022/04/24 08:30:09;;;;;;;10.07;6.23;;;13.60;99.90;;;;;;5032549;28;20188;-42
2022/04/24 08:32:35;;;;;;;8.40;6.40;;;13.70;99.90;;;;;;5032411;28;20198;-43
2022/04/24 08:35:02;;;;;;;8.43;6.53;;;13.80;99.90;;;;;;5033803;28;20184;-42
2022/04/24 08:37:28;;;;;;;7.00;6.20;;;13.90;99.90;;;;;;5033837;28;20240;-43
2022/04/24 08:39:54;;;;;;;12.87;6.87;;;14.00;99.90;;;;;;5033526;28;20311;-43
2022/04/24 08:42:23;;;;;;;15.07;5.40;;;14.10;99.90;;;;;;5033870;28;20713;-41
2022/04/24 08:44:49;;;;;;;6.97;5.90;;;14.10;99.90;;;;;;5033738;28;20595;-43
2022/04/24 08:47:16;;;;;;;7.90;6.60;;;14.10;99.90;;;;;;5033600;28;20200;-42
2022/04/24 08:49:42;;;;;;;7.17;5.90;;;14.10;99.90;;;;;;5032474;28;20177;-40
2022/04/24 08:52:12;;;;;;;8.43;6.43;;;14.20;99.90;;;;;;5033897;28;20189;-44
2022/04/24 08:54:40;;;;;;;8.80;6.10;;;14.30;99.90;;;;;;5034249;28;20189;-43
2022/04/24 08:57:06;;;;;;;5.67;4.90;;;14.40;99.90;;;;;;5034166;28;20200;-43
2022/04/24 08:59:32;;;;;;;7.27;5.50;;;14.50;99.90;;;;;;5038874;28;20180;-42
2022/04/24 09:02:00;;;;;;;5.83;5.20;;;14.50;99.90;;;;;;5048783;28;20280;-44
2022/04/24 09:04:33;;;;;;;7.53;5.83;;;14.60;99.90;;;;;;5046018;28;20177;-44
2022/04/24 09:07:04;;;;;;;8.73;5.70;;;14.70;99.90;;;;;;5034969;28;20197;-45
2022/04/24 09:09:51;;;;;;;6.63;5.90;;;14.80;99.90;;;;;;5033819;28;20189;-42
2022/04/24 09:12:18;;;;;;;7.33;6.10;;;14.90;99.90;;;;;;5033269;28;20185;-43
2022/04/24 09:14:48;;;;;;;9.10;6.60;;;14.90;99.90;;;;;;5033335;28;20259;-42
2022/04/24 09:17:27;;;;;;;8.37;6.20;;;14.90;99.90;;;;;;5033776;28;20201;-40
2022/04/24 09:19:54;;;;;;;7.93;6.20;;;14.90;99.90;;;;;;5033387;28;20227;-44
2022/04/24 09:22:20;;;;;;;7.07;6.03;;;14.90;99.90;;;;;;5033403;28;20219;-42
2022/04/24 09:24:55;;;;;;;8.57;5.83;;;15.10;99.90;;;;;;5033442;28;20184;-43
2022/04/24 09:27:29;;;;;;;7.30;5.87;;;15.20;99.90;;;;;;5033322;28;20210;-41
2022/04/24 09:29:56;;;;;;;6.53;5.83;;;15.30;99.90;;;;;;5033042;28;20228;-42
2022/04/24 09:32:26;;;;;;;7.13;5.80;;;15.30;99.90;;;;;;5032987;28;20177;-43
2022/04/24 09:34:52;;;;;;;7.03;6.10;;;15.40;99.90;;;;;;5033305;28;20177;-41
2022/04/24 09:37:19;;;;;;;6.93;6.00;;;15.50;99.90;;;;;;5035225;28;20205;-43
2022/04/24 09:39:45;;;;;;;7.03;6.33;;;15.50;99.90;;;;;;5036817;28;20197;-44
2022/04/24 09:42:12;;;;;;;10.20;5.90;;;15.60;99.90;;;;;;5036858;28;20181;-40
2022/04/24 09:44:39;;;;;;;5.87;5.27;;;15.60;99.90;;;;;;5036800;28;20185;-43
2022/04/24 09:47:06;;;;;;;9.10;5.80;;;15.60;99.90;;;;;;5037283;28;20540;-43
2022/04/24 09:49:38;;;;;;;8.40;6.90;;;15.70;99.90;;;;;;5035488;28;20271;-43
2022/04/24 09:52:13;;;;;;;7.90;5.63;;;15.80;99.90;;;;;;5036878;28;20188;-40
2022/04/24 09:54:51;;;;;;;10.43;6.17;;;15.90;99.90;;;;;;5036941;28;20241;-43
2022/04/24 09:57:18;;;;;;;6.30;5.20;;;16.00;99.90;;;;;;5036814;28;20215;-42
2022/04/24 09:59:46;;;;;;;6.73;6.00;;;16.10;99.90;;;;;;5036412;28;20181;-42
2022/04/24 10:02:14;;;;;;;7.53;5.47;;;16.20;99.90;;;;;;5036623;28;20189;-42
2022/04/24 10:04:40;;;;;;;7.40;6.57;;;16.30;99.90;;;;;;5035301;28;20227;-41
2022/04/24 10:07:09;;;;;;;7.97;6.20;;;16.30;99.90;;;;;;5036671;28;20292;-44
2022/04/24 10:09:36;;;;;;;9.43;6.30;;;16.30;99.90;;;;;;5036622;28;20192;-44
2022/04/24 10:12:23;;;;;;;7.73;7.00;;;16.40;99.90;;;;;;5036303;28;20169;-41
2022/04/24 10:15:00;;;;;;;8.00;6.70;;;16.50;99.90;;;;;;5036248;28;20189;-44
2022/04/24 10:17:43;;;;;;;6.80;6.03;;;16.60;99.90;;;;;;5036469;28;20681;-41
2022/04/24 10:20:44;;;;;;;10.97;6.53;;;16.60;99.90;;;;;;5036380;28;20205;-44
2022/04/24 10:23:11;;;;;;;7.53;6.73;;;16.70;99.90;;;;;;5036897;28;20493;-44
2022/04/24 10:25:42;;;;;;;7.83;6.40;;;16.70;99.90;;;;;;5036408;28;20685;-43
2022/04/24 10:28:16;;;;;;;9.00;6.30;;;16.80;99.90;;;;;;5036402;28;20216;-43
2022/04/24 10:30:42;;;;;;;10.30;7.03;;;16.80;99.90;;;;;;5035983;28;20243;-43
2022/04/24 10:33:18;;;;;;;7.00;6.30;;;16.90;99.90;;;;;;5035833;28;20188;-43
2022/04/24 10:36:00;;;;;;;9.43;6.90;;;17.00;99.90;;;;;;5036094;28;20165;-44
2022/04/24 10:38:28;;;;;;;8.93;5.97;;;17.00;99.90;;;;;;5036276;28;20633;-44
2022/04/24 10:41:06;;;;;;;8.27;6.50;;;17.00;99.90;;;;;;5035557;28;20223;-43
2022/04/24 10:43:36;;;;;;;7.47;6.40;;;16.90;99.90;;;;;;5036198;28;20188;-43
2022/04/24 10:46:02;;;;;;;8.23;6.43;;;16.90;99.90;;;;;;5036013;28;20192;-43
2022/04/24 10:48:33;;;;;;;7.37;6.20;;;16.90;99.90;;;;;;5035813;28;20216;-43
2022/04/24 10:50:59;;;;;;;9.57;5.87;;;17.00;99.90;;;;;;5035640;28;20711;-43
2022/04/24 10:53:25;;;;;;;7.30;6.20;;;17.10;99.90;;;;;;5035737;28;20263;-46
2022/04/24 10:56:04;;;;;;;7.03;6.33;;;17.10;99.90;;;;;;5035444;28;20181;-44
2022/04/24 10:58:29;;;;;;;8.07;6.83;;;17.20;99.90;;;;;;5035722;28;20204;-42
2022/04/24 11:01:09;;;;;;;6.73;6.13;;;17.30;99.90;;;;;;5035631;28;20310;-42
2022/04/24 11:03:40;;;;;;;7.67;5.93;;;17.30;99.90;;;;;;5035613;28;20185;-44
2022/04/24 11:06:19;;;;;;;9.13;6.00;;;17.40;99.90;;;;;;5035408;28;20177;-43
2022/04/24 11:08:45;;;;;;;8.80;6.80;;;17.40;99.90;;;;;;5034068;28;20617;-43
2022/04/24 11:11:13;;;;;;;7.03;5.87;;;17.50;99.90;;;;;;5035527;28;20181;-44
2022/04/24 11:13:39;;;;;;;9.57;6.43;;;17.50;99.90;;;;;;5035458;28;20269;-42
2022/04/24 11:16:06;;;;;;;6.57;5.97;;;17.50;99.90;;;;;;5035039;28;20184;-44
2022/04/24 11:18:32;;;;;;;8.67;6.20;;;17.60;99.90;;;;;;5035041;28;20295;-42
2022/04/24 11:21:01;;;;;;;6.77;6.13;;;17.60;99.90;;;;;;5035043;28;20692;-44
2022/04/24 11:23:29;;;;;;;6.67;6.07;;;17.70;99.90;;;;;;5035192;28;20195;-45
2022/04/24 11:25:59;;;;;;;7.80;6.50;;;17.70;99.90;;;;;;5035385;28;20187;-42
2022/04/24 11:28:48;;;;;;;7.80;6.10;;;17.70;99.90;;;;;;5034931;28;20169;-44
2022/04/24 11:31:16;;;;;;;7.37;6.03;;;17.80;99.90;;;;;;5035116;28;20176;-43
2022/04/24 11:33:57;;;;;;;8.97;6.43;;;17.80;99.90;;;;;;5035123;28;20192;-43
2022/04/24 11:36:32;;;;;;;7.37;6.63;;;17.80;99.90;;;;;;5035412;28;20196;-44
2022/04/24 11:39:00;;;;;;;6.77;6.10;;;17.80;99.90;;;;;;5034964;28;20177;-43
2022/04/24 11:41:31;;;;;;;8.30;5.67;;;17.80;99.90;;;;;;5034940;28;20204;-44
2022/04/24 11:52:43;;;;;;;6.27;5.53;;;18.10;99.90;;;;;;5034804;28;20709;-43
2022/04/24 11:55:14;;;;;;;7.03;6.33;;;18.20;99.90;;;;;;5034502;28;20184;-43
2022/04/24 11:57:39;;;;;;;9.20;6.67;;;18.10;99.90;;;;;;5034547;28;20243;-44
2022/04/24 12:00:09;;;;;;;6.93;6.23;;;18.10;99.90;;;;;;5033985;28;20232;-44
2022/04/24 12:02:35;;;;;;;8.40;5.63;;;18.10;99.90;;;;;;5034242;28;20187;-43
2022/04/24 12:05:07;;;;;;;6.17;5.53;;;18.10;99.90;;;;;;5034608;28;20259;-43
2022/04/24 12:07:33;;;;;;;6.20;5.60;;;18.10;99.90;;;;;;5034337;28;20268;-43
2022/04/24 12:10:08;;;;;;;6.93;6.17;;;18.00;99.80;;;;;;5033047;28;20177;-42
2022/04/24 12:12:48;;;;;;;9.53;5.77;;;18.10;99.30;;;;;;5034215;28;20169;-45
2022/04/24 12:15:22;;;;;;;6.00;5.40;;;18.10;99.60;;;;;;5034414;28;20161;-43
2022/04/24 12:17:49;;;;;;;9.90;6.30;;;18.20;99.90;;;;;;5034660;28;20561;-43
2022/04/24 12:20:15;;;;;;;7.30;5.57;;;18.40;99.10;;;;;;5034274;28;20576;-44
2022/04/24 12:22:40;;;;;;;6.60;5.90;;;18.40;99.60;;;;;;5034449;28;20184;-45
2022/04/24 12:25:07;;;;;;;9.33;5.83;;;18.30;99.00;;;;;;5034125;28;20268;-44
2022/04/24 12:27:32;;;;;;;7.50;6.10;;;18.50;99.80;;;;;;5034331;28;20193;-42
2022/04/24 12:29:58;;;;;;;6.83;5.80;;;18.60;98.80;;;;;;5033915;28;20181;-44
2022/04/24 12:32:27;;;;;;;8.50;6.00;;;18.70;98.90;;;;;;5033808;28;20704;-44
2022/04/24 12:34:53;;;;;;;6.57;5.40;;;18.60;98.40;;;;;;5033754;28;20200;-44
2022/04/24 12:37:32;;;;;;;7.93;5.20;;;18.60;98.10;;;;;;5033935;28;20201;-44
2022/04/24 12:39:59;;;;;;;6.23;5.53;;;18.60;98.60;;;;;;5033710;28;20199;-43
2022/04/24 12:42:25;;;;;;;6.07;5.47;;;18.60;98.40;;;;;;5033975;28;20234;-44
2022/04/24 12:44:51;;;;;;;5.80;5.30;;;18.70;99.10;;;;;;5033954;28;20276;-44
2022/04/24 12:47:18;;;;;;;9.27;5.83;;;18.60;99.10;;;;;;5033615;28;20204;-45
2022/04/24 12:49:44;;;;;;;5.83;5.03;;;18.50;99.90;;;;;;5033625;28;20184;-44
2022/04/24 12:52:11;;;;;;;5.77;5.13;;;18.30;99.90;;;;;;5033771;28;20534;-43
2022/04/24 12:54:37;;;;;;;6.07;5.50;;;18.20;99.90;;;;;;5033512;28;20181;-44
2022/04/24 12:57:07;;;;;;;5.87;5.27;;;18.00;99.90;;;;;;5033337;28;20276;-42
2022/04/24 12:59:34;;;;;;;5.37;4.87;;;18.00;99.90;;;;;;5033397;28;20231;-43